Time;durP1;ratioP1;P1;durP2;ratioP2;P2;SDS_P1;SDS_P2;PMS_P1;PMS_P2;Temp;Humidity;BMP_temperature;BMP_pressure;BME280_temperature;BME280_humidity;BME280_pressure;Samples;Min_cycle;Max_cycle;Signal;HPM_P1;HPM_P2
2021/10/19 00:00:35;;;;;;;14.23;12.73;;;12.60;99.90;;;;;;5075006;28;20511;-50
2021/10/19 00:03:02;;;;;;;14.77;12.53;;;12.40;99.90;;;;;;5075090;28;20451;-51
2021/10/19 00:05:29;;;;;;;14.67;12.83;;;12.60;99.90;;;;;;5075253;28;20439;-50
2021/10/19 00:07:55;;;;;;;14.73;12.60;;;12.70;99.90;;;;;;5074807;28;20931;-51
2021/10/19 00:10:23;;;;;;;13.73;11.97;;;12.50;99.90;;;;;;5075126;28;20553;-50
2021/10/19 00:12:50;;;;;;;13.70;12.20;;;12.70;99.90;;;;;;5075141;28;20450;-50
2021/10/19 00:15:18;;;;;;;15.43;13.77;;;12.30;99.90;;;;;;5075090;28;20440;-50
2021/10/19 00:17:46;;;;;;;17.10;14.73;;;12.60;99.90;;;;;;5074464;28;20405;-50
2021/10/19 00:20:13;;;;;;;18.20;12.33;;;12.40;99.90;;;;;;5074668;28;20436;-51
2021/10/19 00:22:40;;;;;;;15.17;13.57;;;12.50;99.90;;;;;;5074867;28;20427;-51
2021/10/19 00:25:09;;;;;;;15.10;13.50;;;12.20;99.90;;;;;;5074712;28;20442;-51
2021/10/19 00:27:38;;;;;;;14.20;12.70;;;12.40;99.90;;;;;;5074564;28;20811;-50
2021/10/19 00:30:09;;;;;;;15.93;13.20;;;12.40;99.90;;;;;;5074240;28;20483;-50
2021/10/19 00:32:36;;;;;;;14.80;13.20;;;12.60;99.90;;;;;;5074276;28;20485;-50
2021/10/19 00:35:03;;;;;;;14.97;13.23;;;12.40;99.90;;;;;;5074346;28;20468;-51
2021/10/19 00:37:30;;;;;;;15.33;13.40;;;12.50;99.90;;;;;;5074476;28;20794;-51
2021/10/19 00:39:56;;;;;;;14.77;13.43;;;12.40;99.90;;;;;;5074071;28;20437;-50
2021/10/19 00:42:23;;;;;;;19.80;14.20;;;12.20;99.90;;;;;;5074385;28;20972;-50
2021/10/19 00:44:51;;;;;;;18.67;14.60;;;12.20;99.90;;;;;;5074398;28;20431;-51
2021/10/19 00:47:21;;;;;;;17.63;14.97;;;12.60;99.90;;;;;;5074117;28;20430;-50
2021/10/19 00:49:48;;;;;;;19.63;14.90;;;12.50;99.90;;;;;;5073735;28;20848;-50
2021/10/19 00:52:15;;;;;;;19.47;14.73;;;12.20;99.90;;;;;;5074327;28;20467;-50
2021/10/19 00:54:43;;;;;;;15.60;13.97;;;12.00;99.90;;;;;;5074115;28;20434;-50
2021/10/19 00:57:10;;;;;;;16.97;14.07;;;11.90;99.90;;;;;;5074070;28;20438;-50
2021/10/19 00:59:42;;;;;;;19.13;14.10;;;11.70;99.90;;;;;;5073875;28;20439;-51
2021/10/19 01:02:10;;;;;;;18.53;15.30;;;12.10;99.90;;;;;;5056074;28;20466;-50
2021/10/19 01:04:37;;;;;;;16.00;14.30;;;12.30;99.90;;;;;;5074055;28;20456;-51
2021/10/19 01:07:04;;;;;;;16.60;14.83;;;12.20;99.90;;;;;;5074157;28;20441;-50
2021/10/19 01:09:31;;;;;;;18.43;15.30;;;12.30;99.90;;;;;;5072927;28;20470;-50
2021/10/19 01:11:58;;;;;;;18.70;16.57;;;11.80;99.90;;;;;;5073669;28;21005;-51
2021/10/19 01:14:24;;;;;;;17.60;14.37;;;11.90;99.90;;;;;;5073728;28;20441;-51
2021/10/19 01:16:51;;;;;;;17.00;15.20;;;12.10;99.90;;;;;;5074334;28;20923;-50
2021/10/19 01:19:23;;;;;;;19.83;16.17;;;12.20;99.90;;;;;;5073563;28;20518;-50
2021/10/19 01:21:52;;;;;;;18.53;15.63;;;12.10;99.90;;;;;;5073894;28;20803;-49
2021/10/19 01:24:19;;;;;;;19.83;15.87;;;12.10;99.90;;;;;;5073778;28;20439;-51
2021/10/19 01:26:46;;;;;;;18.33;16.37;;;12.00;99.90;;;;;;5073557;28;20937;-51
2021/10/19 01:29:13;;;;;;;18.30;15.03;;;12.10;99.90;;;;;;5073086;28;20439;-50
2021/10/19 01:31:39;;;;;;;18.27;16.43;;;11.90;99.90;;;;;;5073821;28;20961;-50
2021/10/19 01:34:06;;;;;;;19.10;15.13;;;11.50;99.90;;;;;;5073219;28;20446;-50
2021/10/19 01:36:33;;;;;;;17.47;15.50;;;12.20;99.90;;;;;;5073421;28;20825;-50
2021/10/19 01:39:00;;;;;;;24.80;16.23;;;11.50;99.90;;;;;;5072901;28;20443;-51
2021/10/19 01:41:27;;;;;;;17.43;15.73;;;11.50;99.90;;;;;;5073197;28;20454;-50
2021/10/19 01:43:54;;;;;;;17.93;15.00;;;11.70;99.90;;;;;;5073261;28;20428;-51
2021/10/19 01:46:22;;;;;;;17.07;15.27;;;11.50;99.90;;;;;;5073239;28;20495;-52
2021/10/19 01:48:49;;;;;;;17.30;15.33;;;11.70;99.90;;;;;;5072833;28;20438;-51
2021/10/19 01:51:15;;;;;;;18.00;15.20;;;11.80;99.90;;;;;;5072837;28;20487;-50
2021/10/19 01:53:42;;;;;;;21.40;15.90;;;12.00;99.90;;;;;;5055141;28;20446;-51
2021/10/19 01:56:11;;;;;;;19.27;17.20;;;12.20;99.90;;;;;;5073085;28;20452;-50
2021/10/19 01:58:38;;;;;;;18.60;16.70;;;12.10;99.90;;;;;;5072634;28;20430;-51
2021/10/19 02:01:04;;;;;;;18.70;15.77;;;11.90;99.90;;;;;;5072776;28;20457;-50
2021/10/19 02:03:31;;;;;;;17.40;15.23;;;11.90;99.90;;;;;;5054913;28;20802;-50
2021/10/19 02:05:58;;;;;;;19.83;15.97;;;12.10;99.90;;;;;;5072824;28;20801;-51
2021/10/19 02:08:24;;;;;;;17.40;15.50;;;11.90;99.90;;;;;;5054412;28;20443;-51
2021/10/19 02:10:51;;;;;;;17.87;15.77;;;12.10;99.90;;;;;;5072357;28;20483;-51
2021/10/19 02:13:19;;;;;;;18.43;15.80;;;11.60;99.90;;;;;;5072881;28;20435;-50
2021/10/19 02:15:46;;;;;;;20.20;16.33;;;11.80;99.90;;;;;;5072615;28;20432;-51
2021/10/19 02:18:12;;;;;;;17.30;15.40;;;12.00;99.90;;;;;;5072545;28;20431;-50
2021/10/19 02:20:40;;;;;;;17.70;15.80;;;12.00;99.90;;;;;;5071641;28;20454;-50
2021/10/19 02:23:08;;;;;;;17.27;14.70;;;12.00;99.90;;;;;;5072329;28;20436;-49
2021/10/19 02:25:34;;;;;;;22.50;16.70;;;11.60;99.90;;;;;;5072770;28;20432;-50
2021/10/19 02:28:01;;;;;;;18.10;16.20;;;12.20;99.90;;;;;;5072187;28;20785;-51
2021/10/19 02:30:29;;;;;;;18.40;16.10;;;11.60;99.90;;;;;;5054362;28;20519;-49
2021/10/19 02:32:57;;;;;;;19.00;16.27;;;12.20;99.90;;;;;;5072359;28;20435;-50
2021/10/19 02:35:24;;;;;;;19.63;17.57;;;11.80;99.90;;;;;;5072336;28;20430;-50
2021/10/19 02:37:53;;;;;;;20.07;18.03;;;12.00;99.90;;;;;;5071967;28;20432;-51
2021/10/19 02:40:20;;;;;;;20.57;17.20;;;12.10;99.90;;;;;;5072244;28;21070;-50
2021/10/19 02:42:47;;;;;;;18.43;16.50;;;11.70;99.90;;;;;;5072305;28;20434;-50
2021/10/19 02:45:14;;;;;;;19.23;16.90;;;11.80;99.90;;;;;;5072176;28;20523;-50
2021/10/19 02:47:43;;;;;;;19.30;17.27;;;11.70;99.90;;;;;;5071732;28;20439;-50
2021/10/19 02:50:11;;;;;;;19.90;16.93;;;11.90;99.90;;;;;;5071853;28;20570;-50
2021/10/19 02:52:38;;;;;;;20.20;17.30;;;11.80;99.90;;;;;;5096220;22;21021;-47
2021/10/19 02:55:06;;;;;;;20.40;16.27;;;12.00;99.90;;;;;;5072288;28;20504;-48
2021/10/19 02:57:33;;;;;;;20.00;17.47;;;11.90;99.90;;;;;;5072092;28;20925;-47
2021/10/19 03:00:00;;;;;;;21.00;18.47;;;11.60;99.90;;;;;;5053810;28;20479;-46
2021/10/19 03:02:26;;;;;;;22.40;17.00;;;11.80;99.90;;;;;;5071839;28;20961;-46
2021/10/19 03:04:54;;;;;;;22.87;17.40;;;11.60;99.90;;;;;;5071926;28;20444;-47
2021/10/19 03:07:21;;;;;;;20.00;17.47;;;11.30;99.90;;;;;;5071990;28;20444;-47
2021/10/19 03:09:48;;;;;;;22.10;18.20;;;11.80;99.90;;;;;;5071602;28;20480;-45
2021/10/19 03:12:15;;;;;;;20.60;17.20;;;11.70;99.90;;;;;;5071786;28;20454;-46
2021/10/19 03:14:42;;;;;;;19.73;16.73;;;11.60;99.90;;;;;;5072054;28;20441;-45
2021/10/19 03:17:09;;;;;;;19.40;17.30;;;11.80;99.90;;;;;;5072235;28;20438;-45
2021/10/19 03:19:35;;;;;;;18.50;16.50;;;11.70;99.90;;;;;;5071356;28;20430;-47
2021/10/19 03:22:03;;;;;;;21.07;19.07;;;11.70;99.90;;;;;;5071539;28;20462;-45
2021/10/19 03:24:30;;;;;;;20.70;18.27;;;11.70;99.90;;;;;;5071749;28;20447;-47
2021/10/19 03:26:57;;;;;;;22.10;18.60;;;11.70;99.90;;;;;;5071627;28;20426;-45
2021/10/19 03:29:25;;;;;;;23.00;19.47;;;11.70;99.90;;;;;;5071365;28;20437;-46
2021/10/19 03:31:52;;;;;;;20.30;18.30;;;11.70;99.90;;;;;;5072984;28;20558;-44
2021/10/19 03:34:18;;;;;;;21.57;18.37;;;11.70;99.90;;;;;;5075595;28;20429;-45
2021/10/19 03:36:45;;;;;;;24.23;19.43;;;11.70;99.90;;;;;;5076121;28;20438;-45
2021/10/19 03:39:13;;;;;;;21.67;19.30;;;11.30;99.90;;;;;;5075319;28;20528;-45
2021/10/19 03:41:40;;;;;;;24.30;18.47;;;11.50;99.90;;;;;;5075881;28;20447;-46
2021/10/19 03:44:06;;;;;;;22.43;18.70;;;11.50;99.90;;;;;;5060677;28;20447;-45
2021/10/19 03:46:33;;;;;;;18.83;16.80;;;11.80;99.90;;;;;;5077553;28;20434;-47
2021/10/19 03:49:00;;;;;;;22.10;18.33;;;11.70;99.90;;;;;;5078237;28;20834;-46
2021/10/19 03:51:26;;;;;;;21.93;18.13;;;11.70;99.90;;;;;;5079008;28;20517;-46
2021/10/19 03:53:53;;;;;;;22.23;18.13;;;11.70;99.90;;;;;;5060148;28;20488;-45
2021/10/19 03:56:21;;;;;;;22.83;17.90;;;11.70;99.90;;;;;;5061444;28;20449;-45
2021/10/19 03:58:47;;;;;;;20.40;18.23;;;11.70;99.90;;;;;;5078694;28;20434;-45
2021/10/19 04:01:14;;;;;;;20.63;18.23;;;11.70;99.90;;;;;;5077968;28;20819;-47
2021/10/19 04:03:41;;;;;;;22.40;19.10;;;11.80;99.90;;;;;;5076352;28;20440;-45
2021/10/19 04:06:08;;;;;;;27.93;18.90;;;11.20;99.90;;;;;;5075592;28;20869;-45
2021/10/19 04:08:35;;;;;;;24.00;20.10;;;11.30;99.90;;;;;;5075101;28;20960;-45
2021/10/19 04:11:02;;;;;;;25.63;20.77;;;11.50;99.90;;;;;;5075289;28;20598;-45
2021/10/19 04:13:30;;;;;;;22.23;18.90;;;11.80;99.90;;;;;;5075332;28;20430;-45
2021/10/19 04:15:56;;;;;;;24.43;19.50;;;11.60;99.90;;;;;;5075739;28;20698;-46
2021/10/19 04:18:23;;;;;;;26.17;20.57;;;11.70;99.90;;;;;;5075055;28;21016;-45
2021/10/19 04:20:49;;;;;;;28.43;23.07;;;11.60;99.90;;;;;;5075270;28;20454;-45
2021/10/19 04:23:16;;;;;;;27.00;21.30;;;11.40;99.90;;;;;;5075261;28;20435;-46
2021/10/19 04:25:43;;;;;;;22.20;19.43;;;11.40;99.90;;;;;;5074973;28;20487;-47
2021/10/19 04:28:09;;;;;;;29.47;21.00;;;11.50;99.90;;;;;;5074673;28;20430;-46
2021/10/19 04:30:38;;;;;;;23.30;19.40;;;11.70;99.90;;;;;;5075977;28;20527;-45
2021/10/19 04:33:05;;;;;;;26.90;19.90;;;11.50;99.90;;;;;;5075683;28;20564;-45
2021/10/19 04:35:32;;;;;;;21.63;18.83;;;11.60;99.90;;;;;;5074835;28;20437;-46
2021/10/19 04:37:58;;;;;;;21.90;18.63;;;11.50;99.90;;;;;;5074603;28;20594;-45
2021/10/19 04:40:25;;;;;;;20.70;18.50;;;11.50;99.90;;;;;;5074707;28;20464;-45
2021/10/19 04:42:52;;;;;;;25.13;20.67;;;11.30;99.90;;;;;;5074052;28;20841;-46
2021/10/19 04:45:20;;;;;;;24.07;19.03;;;11.60;99.90;;;;;;5074016;28;20470;-45
2021/10/19 04:47:48;;;;;;;22.03;18.33;;;11.30;99.90;;;;;;5056299;28;20458;-46
2021/10/19 04:50:15;;;;;;;22.03;18.60;;;11.50;99.90;;;;;;5056587;28;20931;-45
2021/10/19 04:52:41;;;;;;;23.93;20.37;;;11.50;99.90;;;;;;5074471;28;20465;-47
2021/10/19 04:55:09;;;;;;;23.50;18.53;;;11.50;99.90;;;;;;5056262;28;20441;-46
2021/10/19 04:57:36;;;;;;;21.73;18.70;;;11.60;99.90;;;;;;5074037;28;20884;-48
2021/10/19 05:00:05;;;;;;;25.03;20.20;;;11.40;99.90;;;;;;5074188;28;20431;-46
2021/10/19 05:02:31;;;;;;;32.77;21.37;;;11.40;99.90;;;;;;5074851;28;20477;-45
2021/10/19 05:04:59;;;;;;;27.10;21.50;;;11.20;99.90;;;;;;5077489;28;20434;-46
2021/10/19 05:07:26;;;;;;;21.90;19.37;;;11.20;99.90;;;;;;5078744;28;20442;-48
2021/10/19 05:09:52;;;;;;;23.40;20.30;;;11.80;99.90;;;;;;5078682;28;20434;-45
2021/10/19 05:12:19;;;;;;;24.50;21.47;;;11.40;99.90;;;;;;5077553;28;20483;-46
2021/10/19 05:14:45;;;;;;;23.10;19.33;;;11.60;99.90;;;;;;5077617;28;20428;-46
2021/10/19 05:17:12;;;;;;;24.63;20.40;;;10.90;99.90;;;;;;5060068;28;20448;-47
2021/10/19 05:19:39;;;;;;;23.37;19.30;;;11.80;99.90;;;;;;5077067;28;20434;-47
2021/10/19 05:22:07;;;;;;;24.13;20.40;;;11.20;99.90;;;;;;5074474;28;20449;-46
2021/10/19 05:24:33;;;;;;;26.30;19.30;;;11.30;99.90;;;;;;5074300;28;20446;-46
2021/10/19 05:27:00;;;;;;;23.77;20.50;;;11.40;99.90;;;;;;5073952;28;20435;-45
2021/10/19 05:29:26;;;;;;;21.83;18.77;;;11.30;99.90;;;;;;5073626;28;20754;-46
2021/10/19 05:31:53;;;;;;;25.50;21.70;;;11.10;99.90;;;;;;5074294;28;20571;-46
2021/10/19 05:34:19;;;;;;;22.53;20.13;;;11.30;99.90;;;;;;5074411;28;20791;-45
2021/10/19 05:36:46;;;;;;;23.83;20.00;;;11.30;99.90;;;;;;5073736;28;20435;-46
2021/10/19 05:39:15;;;;;;;25.10;20.73;;;11.00;99.90;;;;;;5073713;28;20443;-46
2021/10/19 05:41:41;;;;;;;26.53;20.43;;;11.10;99.90;;;;;;5073423;28;20454;-47
2021/10/19 05:44:08;;;;;;;25.97;20.50;;;11.30;99.90;;;;;;5073167;28;20429;-46
2021/10/19 05:46:35;;;;;;;26.20;19.70;;;11.20;99.90;;;;;;5073016;28;20940;-47
2021/10/19 05:49:01;;;;;;;23.37;20.20;;;11.70;99.90;;;;;;5072889;28;20429;-46
2021/10/19 05:51:28;;;;;;;30.03;21.60;;;11.30;99.90;;;;;;5072757;28;20496;-46
2021/10/19 05:53:55;;;;;;;26.97;21.07;;;11.40;99.90;;;;;;5073255;28;20839;-47
2021/10/19 05:56:23;;;;;;;24.17;20.47;;;11.40;99.90;;;;;;5073067;28;20924;-46
2021/10/19 05:58:49;;;;;;;26.23;21.13;;;11.20;99.90;;;;;;5073461;28;20439;-47
2021/10/19 06:01:16;;;;;;;35.37;23.30;;;11.30;99.90;;;;;;5072955;28;20465;-46
2021/10/19 06:03:42;;;;;;;25.70;20.83;;;11.40;99.90;;;;;;5072992;28;20421;-46
2021/10/19 06:06:12;;;;;;;29.40;22.07;;;11.50;99.90;;;;;;5072988;28;20850;-47
2021/10/19 06:08:39;;;;;;;23.50;20.10;;;11.40;99.90;;;;;;5072615;28;20435;-47
2021/10/19 06:11:06;;;;;;;32.37;21.17;;;11.20;99.90;;;;;;5072470;28;20485;-47
2021/10/19 06:13:34;;;;;;;26.80;22.47;;;11.40;99.90;;;;;;5072394;28;20443;-46
2021/10/19 06:16:00;;;;;;;24.50;21.03;;;11.40;99.90;;;;;;5072277;28;20579;-47
2021/10/19 06:18:27;;;;;;;26.77;20.20;;;11.30;99.90;;;;;;5072264;28;20750;-46
2021/10/19 06:20:54;;;;;;;24.30;20.60;;;11.40;99.90;;;;;;5071998;28;20468;-47
2021/10/19 06:23:22;;;;;;;23.67;20.70;;;11.20;99.90;;;;;;5075119;28;20441;-46
2021/10/19 06:25:48;;;;;;;24.27;21.33;;;11.10;99.90;;;;;;5073969;28;20471;-47
2021/10/19 06:28:15;;;;;;;25.63;20.03;;;11.60;99.90;;;;;;5072201;28;20439;-46
2021/10/19 06:30:43;;;;;;;27.33;20.70;;;11.20;99.90;;;;;;5073263;28;20778;-48
2021/10/19 06:33:09;;;;;;;29.97;21.40;;;11.60;99.90;;;;;;5072911;28;20409;-45
2021/10/19 06:35:36;;;;;;;26.03;20.23;;;11.60;99.90;;;;;;5072674;28;20438;-47
2021/10/19 06:38:03;;;;;;;26.87;21.27;;;11.70;99.90;;;;;;5072063;28;20436;-46
2021/10/19 06:40:30;;;;;;;28.77;22.63;;;11.80;99.90;;;;;;5071732;28;20964;-46
2021/10/19 06:42:56;;;;;;;26.20;21.20;;;11.80;99.90;;;;;;5072311;28;20435;-45
2021/10/19 06:45:23;;;;;;;26.27;21.30;;;11.90;99.90;;;;;;5072426;28;20784;-46
2021/10/19 06:47:51;;;;;;;26.60;21.53;;;12.00;99.90;;;;;;5071539;28;20436;-46
2021/10/19 06:50:18;;;;;;;26.50;21.73;;;12.20;99.90;;;;;;5053972;28;20529;-46
2021/10/19 06:52:45;;;;;;;24.63;20.90;;;12.10;99.90;;;;;;5072204;28;20841;-45
2021/10/19 06:55:11;;;;;;;29.10;21.20;;;12.30;99.90;;;;;;5072229;28;20433;-46
2021/10/19 06:57:41;;;;;;;26.90;21.03;;;11.60;99.90;;;;;;5071593;28;20469;-50
2021/10/19 07:00:09;;;;;;;23.97;19.80;;;11.90;99.90;;;;;;5072400;28;20473;-46
2021/10/19 07:02:35;;;;;;;28.07;23.10;;;12.20;99.90;;;;;;5071878;28;20462;-46
2021/10/19 07:05:04;;;;;;;27.50;21.30;;;12.10;99.90;;;;;;5072014;28;20446;-46
2021/10/19 07:07:31;;;;;;;27.13;24.03;;;12.10;99.90;;;;;;5071269;28;20469;-47
2021/10/19 07:09:58;;;;;;;25.07;21.07;;;12.20;99.90;;;;;;5053544;28;20449;-46
2021/10/19 07:12:25;;;;;;;23.73;20.23;;;11.90;99.90;;;;;;5071491;28;20483;-46
2021/10/19 07:14:52;;;;;;;29.57;20.70;;;11.90;99.90;;;;;;5071532;28;20445;-46
2021/10/19 07:17:18;;;;;;;26.97;22.70;;;11.70;99.90;;;;;;5072820;28;20438;-46
2021/10/19 07:19:46;;;;;;;28.20;22.47;;;12.30;99.90;;;;;;5072991;28;20432;-46
2021/10/19 07:22:15;;;;;;;27.80;20.40;;;12.20;99.90;;;;;;5071982;28;20965;-45
2021/10/19 07:24:42;;;;;;;24.97;21.30;;;12.20;99.90;;;;;;5071501;28;20529;-46
2021/10/19 07:27:08;;;;;;;27.97;19.87;;;12.40;99.90;;;;;;5071448;28;20430;-46
2021/10/19 07:29:35;;;;;;;27.07;21.17;;;12.30;99.90;;;;;;5053030;28;20518;-47
2021/10/19 07:32:02;;;;;;;22.27;19.73;;;12.30;99.90;;;;;;5071417;28;20487;-46
2021/10/19 07:34:29;;;;;;;27.37;21.50;;;12.10;99.90;;;;;;5053668;28;20534;-47
2021/10/19 07:36:57;;;;;;;28.37;21.23;;;12.50;99.90;;;;;;5053310;28;20531;-46
2021/10/19 07:39:25;;;;;;;25.00;20.87;;;12.10;99.90;;;;;;5071350;28;20438;-46
2021/10/19 07:41:52;;;;;;;27.60;21.70;;;12.60;99.90;;;;;;5073092;28;20503;-46
2021/10/19 07:44:21;;;;;;;24.93;22.33;;;12.60;99.90;;;;;;5073280;28;20984;-45
2021/10/19 07:46:48;;;;;;;29.37;22.50;;;12.70;99.90;;;;;;5053589;28;20456;-46
2021/10/19 07:49:15;;;;;;;28.80;21.33;;;12.70;99.90;;;;;;5071242;28;20560;-46
2021/10/19 07:51:42;;;;;;;28.40;20.73;;;12.80;99.90;;;;;;5070917;28;20487;-46
2021/10/19 07:54:09;;;;;;;27.40;21.40;;;13.00;99.90;;;;;;5071064;28;20440;-46
2021/10/19 07:56:38;;;;;;;24.30;20.90;;;13.00;99.90;;;;;;5071410;28;20756;-46
2021/10/19 07:59:06;;;;;;;24.90;20.83;;;12.90;99.90;;;;;;5072226;28;20806;-46
2021/10/19 08:01:32;;;;;;;26.33;21.47;;;13.10;99.90;;;;;;5072070;28;20891;-46
2021/10/19 08:03:59;;;;;;;28.27;20.93;;;12.80;99.90;;;;;;5071246;28;20429;-45
2021/10/19 08:06:26;;;;;;;26.77;21.17;;;12.90;99.90;;;;;;5053175;28;20471;-47
2021/10/19 08:08:53;;;;;;;24.90;21.50;;;13.20;99.90;;;;;;5070927;28;20436;-46
2021/10/19 08:11:19;;;;;;;25.30;21.10;;;13.30;99.90;;;;;;5071012;28;20472;-45
2021/10/19 08:13:48;;;;;;;24.90;21.03;;;13.10;99.90;;;;;;5071360;28;20454;-47
2021/10/19 08:16:15;;;;;;;24.20;19.70;;;13.30;99.90;;;;;;5071231;28;21020;-46
2021/10/19 08:18:41;;;;;;;26.07;20.73;;;13.30;99.90;;;;;;5072324;28;20817;-45
2021/10/19 08:21:09;;;;;;;30.23;21.17;;;13.30;99.90;;;;;;5075008;28;20449;-47
2021/10/19 08:23:36;;;;;;;23.90;20.70;;;13.70;99.90;;;;;;5056961;28;20465;-49
2021/10/19 08:26:03;;;;;;;31.43;22.40;;;13.60;99.90;;;;;;5075144;28;20819;-47
2021/10/19 08:28:31;;;;;;;25.00;21.83;;;13.60;99.90;;;;;;5075298;28;20433;-46
2021/10/19 08:30:59;;;;;;;24.67;20.60;;;13.70;99.90;;;;;;5075365;28;20999;-47
2021/10/19 08:33:26;;;;;;;24.27;21.60;;;13.80;99.90;;;;;;5075021;28;20484;-46
2021/10/19 08:35:53;;;;;;;22.43;19.77;;;13.80;99.90;;;;;;5074783;28;20921;-47
2021/10/19 08:38:19;;;;;;;26.10;20.67;;;13.80;99.90;;;;;;5074057;28;20441;-47
2021/10/19 08:40:46;;;;;;;28.37;21.23;;;13.80;99.90;;;;;;5074575;28;20496;-46
2021/10/19 08:43:14;;;;;;;24.47;20.23;;;13.80;99.90;;;;;;5074467;28;20433;-48
2021/10/19 08:45:40;;;;;;;25.10;21.93;;;13.80;99.90;;;;;;5074646;28;20792;-46
2021/10/19 08:48:09;;;;;;;26.50;20.20;;;13.60;99.90;;;;;;5074318;28;20447;-47
2021/10/19 08:50:36;;;;;;;25.77;21.60;;;13.80;99.90;;;;;;5074041;28;20529;-48
2021/10/19 08:53:03;;;;;;;24.90;19.70;;;13.80;99.90;;;;;;5074949;28;20952;-48
2021/10/19 08:55:30;;;;;;;24.50;18.97;;;13.90;99.90;;;;;;5074151;28;20443;-47
2021/10/19 08:58:02;;;;;;;23.53;19.30;;;13.50;99.90;;;;;;5073688;28;20440;-47
2021/10/19 09:00:29;;;;;;;22.87;18.90;;;14.10;99.90;;;;;;5075356;28;20956;-45
2021/10/19 09:02:56;;;;;;;22.17;18.70;;;14.30;99.90;;;;;;5074431;28;20437;-47
2021/10/19 09:05:26;;;;;;;24.93;20.23;;;14.20;99.90;;;;;;5074525;28;20437;-45
2021/10/19 09:07:57;;;;;;;24.73;18.87;;;14.00;99.90;;;;;;5073987;28;20436;-46
2021/10/19 09:10:25;;;;;;;24.50;19.00;;;14.20;99.90;;;;;;5074331;28;20442;-46
2021/10/19 09:12:53;;;;;;;21.47;18.80;;;14.30;99.90;;;;;;5073536;28;20997;-47
2021/10/19 09:15:22;;;;;;;23.93;18.77;;;14.40;99.90;;;;;;5074221;28;20531;-49
2021/10/19 09:17:49;;;;;;;22.50;19.13;;;14.40;99.90;;;;;;5073682;28;20441;-45
2021/10/19 09:20:18;;;;;;;23.10;18.93;;;14.70;99.90;;;;;;5073985;28;20437;-47
2021/10/19 09:23:00;;;;;;;21.97;18.40;;;14.60;99.90;;;;;;5073682;28;20461;-46
2021/10/19 09:25:32;;;;;;;22.80;18.90;;;14.40;99.90;;;;;;5074583;28;20461;-46
2021/10/19 09:28:01;;;;;;;23.03;18.20;;;14.70;99.90;;;;;;5074747;28;20434;-46
2021/10/19 09:30:36;;;;;;;24.43;18.83;;;14.70;99.90;;;;;;5074003;28;20457;-47
2021/10/19 09:33:04;;;;;;;17.93;15.60;;;14.90;99.90;;;;;;5056844;28;20472;-46
2021/10/19 09:35:31;;;;;;;24.03;17.37;;;14.60;99.90;;;;;;5074041;28;20437;-48
2021/10/19 09:38:05;;;;;;;22.50;18.80;;;14.70;99.90;;;;;;5074106;28;20523;-46
2021/10/19 09:40:37;;;;;;;21.00;18.30;;;15.00;99.90;;;;;;5074108;28;20796;-46
2021/10/19 09:43:06;;;;;;;21.20;17.30;;;15.10;99.90;;;;;;5074141;28;20437;-45
2021/10/19 09:45:33;;;;;;;20.00;16.87;;;15.00;99.90;;;;;;5073575;28;20499;-48
2021/10/19 09:48:00;;;;;;;20.00;17.90;;;14.90;99.90;;;;;;5073126;28;20435;-47
2021/10/19 09:50:28;;;;;;;20.87;18.67;;;15.10;99.90;;;;;;5073637;28;20500;-47
2021/10/19 09:52:56;;;;;;;19.10;16.70;;;15.10;99.90;;;;;;5072991;28;20996;-48
2021/10/19 09:55:24;;;;;;;20.40;17.13;;;15.00;99.90;;;;;;5055248;28;20446;-49
2021/10/19 09:57:52;;;;;;;19.13;16.10;;;15.30;99.90;;;;;;5072676;28;20437;-47
2021/10/19 10:00:22;;;;;;;19.23;17.23;;;15.10;99.90;;;;;;5072974;28;20444;-46
2021/10/19 10:02:49;;;;;;;21.73;18.00;;;15.40;99.90;;;;;;5072853;28;20446;-48
2021/10/19 10:05:16;;;;;;;18.53;16.30;;;15.20;99.90;;;;;;5073420;28;20504;-46
2021/10/19 10:07:45;;;;;;;18.03;16.10;;;15.40;99.90;;;;;;5072576;28;20437;-46
2021/10/19 10:10:14;;;;;;;20.80;16.97;;;15.50;99.90;;;;;;5072868;28;20441;-46
2021/10/19 10:12:45;;;;;;;17.70;15.90;;;15.50;99.90;;;;;;5072533;28;20531;-46
2021/10/19 10:15:23;;;;;;;18.23;16.33;;;15.40;99.90;;;;;;5054812;28;20544;-46
2021/10/19 10:17:51;;;;;;;22.03;16.97;;;15.50;99.90;;;;;;5074485;28;20433;-46
2021/10/19 10:20:19;;;;;;;19.27;14.73;;;15.70;99.90;;;;;;5073745;28;20437;-46
2021/10/19 10:22:46;;;;;;;17.83;16.03;;;15.80;99.90;;;;;;5072863;28;20446;-47
2021/10/19 10:25:15;;;;;;;17.47;14.90;;;15.80;99.90;;;;;;5072413;28;20528;-46
2021/10/19 10:27:44;;;;;;;17.50;14.37;;;15.90;99.90;;;;;;5072218;28;20986;-46
2021/10/19 10:30:20;;;;;;;21.00;16.20;;;15.90;99.90;;;;;;5072281;28;20442;-46
2021/10/19 10:32:47;;;;;;;21.70;16.70;;;15.80;99.90;;;;;;5071926;28;20976;-48
2021/10/19 10:35:16;;;;;;;19.50;15.70;;;16.00;99.90;;;;;;5073222;28;20466;-46
2021/10/19 10:37:47;;;;;;;18.50;15.57;;;15.90;99.90;;;;;;5054200;28;20461;-46
2021/10/19 10:40:26;;;;;;;18.23;16.30;;;15.90;99.90;;;;;;5072508;28;20441;-48
2021/10/19 10:42:56;;;;;;;19.00;16.37;;;16.00;99.90;;;;;;5071470;28;20538;-47
2021/10/19 10:45:28;;;;;;;15.83;14.23;;;15.90;99.90;;;;;;5072050;28;20430;-46
2021/10/19 10:47:58;;;;;;;19.77;15.90;;;16.00;99.90;;;;;;5071907;28;20436;-47
2021/10/19 10:50:25;;;;;;;18.13;15.77;;;16.00;99.90;;;;;;5054706;28;20448;-47
2021/10/19 10:53:00;;;;;;;17.90;15.23;;;16.00;99.90;;;;;;5071962;28;20999;-46
2021/10/19 10:55:27;;;;;;;18.83;16.60;;;16.30;99.90;;;;;;5072473;28;20468;-46
2021/10/19 10:57:55;;;;;;;20.07;15.63;;;16.10;99.90;;;;;;5072267;28;20448;-49
2021/10/19 11:00:26;;;;;;;17.83;15.63;;;16.20;99.90;;;;;;5072151;28;20529;-47
2021/10/19 11:03:11;;;;;;;19.30;15.90;;;16.00;99.90;;;;;;5072008;28;20439;-47
2021/10/19 11:05:49;;;;;;;17.30;15.10;;;16.30;99.90;;;;;;5074425;28;20503;-47
2021/10/19 11:08:21;;;;;;;17.30;15.07;;;16.40;99.90;;;;;;5074629;28;20440;-46
2021/10/19 11:10:50;;;;;;;16.63;14.40;;;16.50;99.90;;;;;;5073648;28;20445;-49
2021/10/19 11:13:18;;;;;;;17.73;14.87;;;16.30;99.90;;;;;;5072212;28;20490;-46
2021/10/19 11:15:51;;;;;;;16.30;14.50;;;16.60;99.90;;;;;;5073645;28;20431;-46
2021/10/19 11:18:18;;;;;;;17.73;15.80;;;16.70;99.90;;;;;;5072000;28;20929;-47
2021/10/19 11:20:52;;;;;;;20.37;14.90;;;16.70;99.90;;;;;;5071998;28;20434;-47
2021/10/19 11:23:18;;;;;;;16.23;14.50;;;16.70;99.90;;;;;;5071742;28;20521;-47
2021/10/19 11:25:46;;;;;;;15.97;14.27;;;16.80;99.90;;;;;;5071980;28;20434;-47
2021/10/19 11:28:13;;;;;;;15.80;13.90;;;16.90;99.90;;;;;;5071413;28;20920;-46
2021/10/19 11:30:41;;;;;;;17.53;13.63;;;16.90;99.90;;;;;;5071764;28;20438;-47
2021/10/19 11:33:08;;;;;;;18.53;14.57;;;17.00;99.90;;;;;;5071724;28;20474;-46
2021/10/19 11:35:35;;;;;;;15.20;13.60;;;17.00;99.90;;;;;;5073031;28;20940;-46
2021/10/19 11:38:02;;;;;;;19.83;13.97;;;17.10;99.90;;;;;;5072450;28;20426;-45
2021/10/19 11:40:29;;;;;;;15.47;13.90;;;17.20;99.90;;;;;;5071522;28;20821;-48
2021/10/19 11:42:57;;;;;;;15.10;13.50;;;17.10;99.90;;;;;;5071357;28;20500;-48
2021/10/19 11:45:25;;;;;;;16.07;11.73;;;17.20;99.90;;;;;;5072040;28;20481;-47
2021/10/19 11:47:56;;;;;;;19.00;14.40;;;17.00;99.90;;;;;;5071230;28;20459;-46
2021/10/19 11:50:26;;;;;;;15.67;12.90;;;17.30;99.90;;;;;;5071977;28;20427;-46
2021/10/19 11:52:53;;;;;;;16.10;13.47;;;17.40;99.90;;;;;;5054072;28;20486;-45
2021/10/19 11:55:22;;;;;;;14.73;13.20;;;17.40;99.90;;;;;;5075844;28;20879;-48
2021/10/19 11:57:50;;;;;;;20.93;12.50;;;17.40;99.90;;;;;;5074656;28;20559;-47
2021/10/19 12:00:18;;;;;;;14.77;12.90;;;17.50;99.90;;;;;;5075471;28;20446;-48
2021/10/19 12:02:50;;;;;;;15.20;13.23;;;17.60;99.90;;;;;;5075527;28;20446;-46
2021/10/19 12:05:18;;;;;;;14.63;12.10;;;17.50;99.90;;;;;;5075745;28;20442;-46
2021/10/19 12:07:49;;;;;;;14.00;12.20;;;17.50;99.90;;;;;;5075421;28;20832;-47
2021/10/19 12:10:19;;;;;;;15.40;13.40;;;17.50;99.90;;;;;;5075459;28;20435;-46
2021/10/19 12:12:58;;;;;;;14.67;12.10;;;17.60;99.90;;;;;;5056214;28;20475;-46
2021/10/19 12:15:27;;;;;;;16.30;11.90;;;17.60;99.90;;;;;;5075832;28;20822;-47
2021/10/19 12:17:56;;;;;;;17.57;13.07;;;17.70;99.90;;;;;;5074706;28;20441;-47
2021/10/19 12:20:25;;;;;;;13.83;12.03;;;17.70;99.90;;;;;;5075631;28;20922;-47
2021/10/19 12:22:58;;;;;;;15.17;11.93;;;17.90;99.90;;;;;;5075288;28;20443;-46
2021/10/19 12:25:24;;;;;;;13.70;11.90;;;17.60;99.90;;;;;;5074827;28;20971;-48
2021/10/19 12:27:51;;;;;;;13.97;11.30;;;17.80;99.90;;;;;;5074417;28;20426;-48
2021/10/19 12:30:18;;;;;;;13.43;11.13;;;17.80;99.90;;;;;;5075426;28;20435;-48